Time;durP1;ratioP1;P1;durP2;ratioP2;P2;SDS_P1;SDS_P2;PMS_P1;PMS_P2;Temp;Humidity;BMP_temperature;BMP_pressure;BME280_temperature;BME280_humidity;BME280_pressure;Samples;Min_cycle;Max_cycle;Signal;HPM_P1;HPM_P2
2022/04/11 00:00:10;;;;;;;65.95;9.40;;;;;;;;;;5095129;28;20208;-73
2022/04/11 00:02:37;;;;;;;63.90;8.43;;;;;;;;;;5083856;28;20313;-74
2022/04/11 00:05:04;;;;;;;67.95;9.80;;;;;;;;;;5075018;28;20627;-74
2022/04/11 00:07:32;;;;;;;70.00;10.40;;;;;;;;;;5073158;28;20220;-74
2022/04/11 00:09:59;;;;;;;67.38;10.10;;;;;;;;;;5074267;28;20307;-74
2022/04/11 00:12:29;;;;;;;67.80;8.95;;;;;;;;;;5074920;28;20589;-74
2022/04/11 00:14:58;;;;;;;70.80;10.18;;;;;;;;;;5074788;28;20246;-73
2022/04/11 00:17:25;;;;;;;67.47;10.23;;;;;;;;;;5074093;28;20266;-73
2022/04/11 00:19:53;;;;;;;64.38;9.15;;;;;;;;;;5074574;28;20240;-74
2022/04/11 00:22:20;;;;;;;64.13;8.63;;;;;;;;;;5074360;28;20308;-74
2022/04/11 00:24:47;;;;;;;71.00;8.65;;;;;;;;;;5074340;28;20211;-73
2022/04/11 00:27:14;;;;;;;66.53;8.27;;;;;;;;;;5072726;28;20208;-73
2022/04/11 00:29:42;;;;;;;65.20;8.30;;;;;;;;;;5090013;28;20298;-73
2022/04/11 00:32:10;;;;;;;65.47;8.07;;;;;;;;;;5094927;28;20222;-73
2022/04/11 00:34:37;;;;;;;66.10;8.93;;;;;;;;;;5094759;28;20296;-75
2022/04/11 00:37:04;;;;;;;62.90;7.65;;;;;;;;;;5094623;28;20235;-74
2022/04/11 00:39:31;;;;;;;66.03;8.35;;;;;;;;;;5093684;28;20243;-73
2022/04/11 00:41:59;;;;;;;63.58;7.82;;;;;;;;;;5094047;28;20890;-73
2022/04/11 00:44:26;;;;;;;65.50;7.30;;;;;;;;;;5093884;28;20295;-73
2022/04/11 00:46:54;;;;;;;63.85;8.13;;;;;;;;;;5094529;28;20299;-74
2022/04/11 00:49:21;;;;;;;63.63;8.20;;;;;;;;;;5093440;28;20330;-73
2022/04/11 00:51:48;;;;;;;65.05;8.25;;;;;;;;;;5094550;28;20204;-74
2022/04/11 00:54:15;;;;;;;67.50;9.20;;;;;;;;;;5094137;28;20204;-72
2022/04/11 00:56:43;;;;;;;64.75;8.30;;;;;;;;;;5094110;28;20322;-73
2022/04/11 00:59:13;;;;;;;67.07;8.18;;;;;;;;;;5093275;28;20224;-73
2022/04/11 01:01:40;;;;;;;64.18;8.43;;;;;;;;;;5090232;28;20227;-74
2022/04/11 01:04:23;;;;;;;64.35;7.90;;;;;;;;;;5092757;28;20575;-74
2022/04/11 01:06:50;;;;;;;64.53;7.80;;;;;;;;;;5093815;28;20665;-74
2022/04/11 01:09:17;;;;;;;63.22;7.65;;;;;;;;;;5092984;28;20224;-73
2022/04/11 01:11:44;;;;;;;62.95;8.15;;;;;;;;;;5094220;28;20200;-73
2022/04/11 01:14:11;;;;;;;64.30;8.00;;;;;;;;;;5093870;28;20211;-73
2022/04/11 01:16:38;;;;;;;65.72;7.80;;;;;;;;;;5093905;28;20208;-74
2022/04/11 01:19:06;;;;;;;63.63;8.40;;;;;;;;;;5092833;28;20318;-74
2022/04/11 01:21:34;;;;;;;62.00;7.53;;;;;;;;;;5093186;28;20249;-73
2022/04/11 01:24:01;;;;;;;64.70;8.20;;;;;;;;;;5093528;28;20254;-73
2022/04/11 01:26:28;;;;;;;63.30;8.15;;;;;;;;;;5093664;28;20237;-72
2022/04/11 01:28:57;;;;;;;62.72;7.80;;;;;;;;;;5092828;28;20720;-73
2022/04/11 01:31:25;;;;;;;64.95;8.80;;;;;;;;;;5092516;28;20203;-73
2022/04/11 01:33:52;;;;;;;63.42;7.82;;;;;;;;;;5090441;28;20749;-73
2022/04/11 01:36:19;;;;;;;64.28;8.27;;;;;;;;;;5093479;28;20590;-74
2022/04/11 01:38:48;;;;;;;76.30;8.63;;;;;;;;;;5092676;28;20228;-74
2022/04/11 01:41:15;;;;;;;67.95;7.55;;;;;;;;;;5093156;28;20230;-74
2022/04/11 01:43:42;;;;;;;63.20;8.55;;;;;;;;;;5092736;28;20208;-74
2022/04/11 01:46:09;;;;;;;63.17;8.60;;;;;;;;;;5093073;28;20208;-73
2022/04/11 01:48:36;;;;;;;65.90;8.95;;;;;;;;;;5092122;28;20274;-75
2022/04/11 01:51:03;;;;;;;64.00;7.95;;;;;;;;;;5089672;28;20675;-74
2022/04/11 01:53:30;;;;;;;66.75;9.13;;;;;;;;;;5093123;28;20305;-75
2022/04/11 01:55:59;;;;;;;64.20;7.75;;;;;;;;;;5093225;28;20207;-74
2022/04/11 01:58:26;;;;;;;67.47;8.13;;;;;;;;;;5092177;28;20224;-74
2022/04/11 02:00:55;;;;;;;69.28;8.68;;;;;;;;;;5092976;28;20210;-72
2022/04/11 02:03:22;;;;;;;64.30;7.72;;;;;;;;;;5088785;28;20204;-74
2022/04/11 02:05:49;;;;;;;64.88;8.35;;;;;;;;;;5072218;28;20209;-74
2022/04/11 02:08:16;;;;;;;65.07;8.23;;;;;;;;;;5071978;28;20753;-74
2022/04/11 02:10:43;;;;;;;64.32;8.10;;;;;;;;;;5072437;28;20211;-74
2022/04/11 02:13:11;;;;;;;63.45;8.10;;;;;;;;;;5072381;28;20691;-74
2022/04/11 02:15:39;;;;;;;63.97;7.03;;;;;;;;;;5072599;28;20216;-74
2022/04/11 02:18:06;;;;;;;63.15;9.13;;;;;;;;;;5071780;28;20233;-74
2022/04/11 02:20:34;;;;;;;67.00;9.43;;;;;;;;;;5072222;28;20208;-75
2022/04/11 02:23:01;;;;;;;67.53;8.93;;;;;;;;;;5072131;28;20224;-75
2022/04/11 02:25:29;;;;;;;63.88;8.52;;;;;;;;;;5071724;28;20697;-75
2022/04/11 02:27:57;;;;;;;68.03;7.28;;;;;;;;;;5071436;28;20235;-74
2022/04/11 02:30:26;;;;;;;67.30;9.60;;;;;;;;;;5072341;28;20614;-74
2022/04/11 02:32:54;;;;;;;66.25;10.45;;;;;;;;;;5072192;28;20232;-74
2022/04/11 02:35:21;;;;;;;68.63;9.45;;;;;;;;;;5071199;28;20213;-74
2022/04/11 02:37:49;;;;;;;64.35;8.88;;;;;;;;;;5087560;28;20785;-73
2022/04/11 02:40:16;;;;;;;65.93;9.25;;;;;;;;;;5092048;28;20212;-74
2022/04/11 02:42:44;;;;;;;68.20;8.85;;;;;;;;;;5092079;28;20231;-73
2022/04/11 02:45:11;;;;;;;65.47;9.13;;;;;;;;;;5091851;28;20577;-74
2022/04/11 02:47:40;;;;;;;64.55;8.02;;;;;;;;;;5091073;28;20224;-74
2022/04/11 02:50:08;;;;;;;66.80;8.50;;;;;;;;;;5091969;28;20216;-74
2022/04/11 02:52:35;;;;;;;70.13;10.73;;;;;;;;;;5091890;28;20283;-73
2022/04/11 02:55:03;;;;;;;72.82;11.63;;;;;;;;;;5092493;28;20205;-72
2022/04/11 02:57:30;;;;;;;72.55;10.05;;;;;;;;;;5091681;28;20588;-74
2022/04/11 02:59:57;;;;;;;66.38;8.65;;;;;;;;;;5091907;28;20232;-73
2022/04/11 03:02:24;;;;;;;67.10;8.65;;;;;;;;;;5091539;28;20310;-74
2022/04/11 03:04:53;;;;;;;70.40;10.10;;;;;;;;;;5092095;28;20247;-74
2022/04/11 03:07:20;;;;;;;68.90;9.57;;;;;;;;;;5091183;28;20242;-74
2022/04/11 03:09:48;;;;;;;66.72;9.00;;;;;;;;;;5088904;28;20210;-74
2022/04/11 03:12:15;;;;;;;64.70;8.52;;;;;;;;;;5092099;28;20200;-73
2022/04/11 03:14:42;;;;;;;66.32;8.90;;;;;;;;;;5092296;28;20211;-74
2022/04/11 03:17:10;;;;;;;64.13;7.53;;;;;;;;;;5091187;28;20680;-69
2022/04/11 03:19:37;;;;;;;67.45;8.32;;;;;;;;;;5091636;28;20564;-74
2022/04/11 03:22:06;;;;;;;65.30;8.30;;;;;;;;;;5091471;28;20318;-74
2022/04/11 03:24:33;;;;;;;66.88;8.07;;;;;;;;;;5091790;28;20307;-73
2022/04/11 03:27:00;;;;;;;62.90;8.27;;;;;;;;;;5093420;28;20664;-73
2022/04/11 03:29:27;;;;;;;64.45;7.82;;;;;;;;;;5095330;28;20224;-74
2022/04/11 03:31:54;;;;;;;63.60;8.38;;;;;;;;;;5095879;28;20210;-74
2022/04/11 03:34:21;;;;;;;65.43;8.25;;;;;;;;;;5095531;28;20214;-73
2022/04/11 03:36:49;;;;;;;63.45;7.55;;;;;;;;;;5096266;28;20618;-74
2022/04/11 03:39:17;;;;;;;62.17;7.90;;;;;;;;;;5095337;28;20576;-74
2022/04/11 03:41:44;;;;;;;62.28;7.35;;;;;;;;;;5073130;28;20288;-73
2022/04/11 03:44:12;;;;;;;74.55;11.93;;;;;;;;;;5075602;28;20756;-73
2022/04/11 03:46:39;;;;;;;76.25;12.15;;;;;;;;;;5075383;28;20296;-74
2022/04/11 03:49:06;;;;;;;68.90;10.68;;;;;;;;;;5074616;28;20326;-73
2022/04/11 03:51:34;;;;;;;67.05;10.27;;;;;;;;;;5075286;28;20626;-74
2022/04/11 03:54:01;;;;;;;66.50;9.10;;;;;;;;;;5075281;28;20211;-73
2022/04/11 03:56:29;;;;;;;65.35;9.23;;;;;;;;;;5075263;28;20583;-73
2022/04/11 03:58:56;;;;;;;68.20;9.48;;;;;;;;;;5074358;28;20654;-72
2022/04/11 04:01:24;;;;;;;64.90;9.50;;;;;;;;;;5074660;28;20205;-73
2022/04/11 04:03:51;;;;;;;64.75;8.57;;;;;;;;;;5074945;28;20672;-73
2022/04/11 04:06:18;;;;;;;71.10;8.57;;;;;;;;;;5074485;28;20205;-74
2022/04/11 04:08:46;;;;;;;64.13;8.45;;;;;;;;;;5074382;28;20237;-74
2022/04/11 04:11:13;;;;;;;64.32;7.25;;;;;;;;;;5074301;28;20212;-74
2022/04/11 04:13:42;;;;;;;65.28;7.63;;;;;;;;;;5094976;28;20200;-74
2022/04/11 04:16:09;;;;;;;68.40;7.25;;;;;;;;;;5095127;28;20591;-74
2022/04/11 04:18:36;;;;;;;63.22;7.93;;;;;;;;;;5094237;28;20234;-74
2022/04/11 04:21:03;;;;;;;67.50;8.25;;;;;;;;;;5095048;28;20299;-73
2022/04/11 04:23:30;;;;;;;64.78;9.52;;;;;;;;;;5094540;28;20220;-74
2022/04/11 04:25:58;;;;;;;67.38;10.15;;;;;;;;;;5094510;28;20214;-74
2022/04/11 04:28:25;;;;;;;67.47;10.48;;;;;;;;;;5093625;28;20228;-74
2022/04/11 04:30:53;;;;;;;67.72;10.45;;;;;;;;;;5094774;28;20206;-74
2022/04/11 04:33:20;;;;;;;68.13;10.13;;;;;;;;;;5094527;28;20200;-74
2022/04/11 04:35:47;;;;;;;66.22;9.07;;;;;;;;;;5094656;28;20294;-72
2022/04/11 04:38:15;;;;;;;67.13;9.63;;;;;;;;;;5092539;28;20228;-73
2022/04/11 04:40:42;;;;;;;67.03;9.98;;;;;;;;;;5094629;28;20607;-74
2022/04/11 04:43:09;;;;;;;68.82;10.20;;;;;;;;;;5080537;28;20221;-74
2022/04/11 04:45:37;;;;;;;63.42;9.15;;;;;;;;;;5074172;28;20216;-73
2022/04/11 04:48:06;;;;;;;65.30;9.57;;;;;;;;;;5072860;28;20229;-73
2022/04/11 04:50:33;;;;;;;66.93;9.02;;;;;;;;;;5074260;28;20204;-73
2022/04/11 04:53:00;;;;;;;66.65;8.65;;;;;;;;;;5073922;28;20288;-73
2022/04/11 04:55:28;;;;;;;67.60;9.75;;;;;;;;;;5074040;28;20312;-73
2022/04/11 04:57:55;;;;;;;65.05;8.43;;;;;;;;;;5073446;28;20654;-73
2022/04/11 05:00:22;;;;;;;65.95;8.48;;;;;;;;;;5074199;28;20478;-73
2022/04/11 05:02:49;;;;;;;65.78;8.85;;;;;;;;;;5073462;28;20239;-73
2022/04/11 05:05:18;;;;;;;66.47;9.50;;;;;;;;;;5073810;28;20212;-72
2022/04/11 05:07:45;;;;;;;68.80;9.88;;;;;;;;;;5072575;28;20320;-72
2022/04/11 05:10:12;;;;;;;67.82;8.95;;;;;;;;;;5073161;28;20291;-74
2022/04/11 05:12:40;;;;;;;65.60;9.10;;;;;;;;;;5072877;28;20244;-74
2022/04/11 05:15:07;;;;;;;68.95;9.63;;;;;;;;;;5070554;28;20205;-73
2022/04/11 05:17:34;;;;;;;65.78;8.50;;;;;;;;;;5073029;28;20311;-72
2022/04/11 05:20:02;;;;;;;65.35;9.07;;;;;;;;;;5073674;28;20209;-72
2022/04/11 05:22:30;;;;;;;64.55;8.40;;;;;;;;;;5074079;28;20693;-73
2022/04/11 05:24:58;;;;;;;68.20;9.77;;;;;;;;;;5071942;28;20243;-73
2022/04/11 05:27:25;;;;;;;64.45;8.73;;;;;;;;;;5071762;28;20262;-72
2022/04/11 05:29:52;;;;;;;67.15;10.13;;;;;;;;;;5072091;28;20213;-73
2022/04/11 05:32:19;;;;;;;67.65;10.15;;;;;;;;;;5072385;28;20205;-74
2022/04/11 05:34:46;;;;;;;67.60;9.40;;;;;;;;;;5072828;28;20205;-73
2022/04/11 05:37:14;;;;;;;67.13;8.88;;;;;;;;;;5071404;28;20295;-74
2022/04/11 05:39:42;;;;;;;65.18;8.55;;;;;;;;;;5073145;28;20752;-74
2022/04/11 05:42:09;;;;;;;68.40;9.35;;;;;;;;;;5087310;28;20228;-72
2022/04/11 05:44:37;;;;;;;67.00;8.80;;;;;;;;;;5096565;28;20204;-72
2022/04/11 05:47:04;;;;;;;64.00;9.35;;;;;;;;;;5094577;28;20204;-75
2022/04/11 05:49:31;;;;;;;64.57;9.23;;;;;;;;;;5093432;28;20704;-73
2022/04/11 05:51:58;;;;;;;64.60;8.88;;;;;;;;;;5093012;28;20691;-73
2022/04/11 05:54:25;;;;;;;70.15;10.00;;;;;;;;;;5093317;28;20469;-72
2022/04/11 05:56:55;;;;;;;67.35;9.85;;;;;;;;;;5093993;28;20214;-74
2022/04/11 05:59:22;;;;;;;64.55;9.95;;;;;;;;;;5094640;28;20255;-74
2022/04/11 06:01:49;;;;;;;63.97;8.48;;;;;;;;;;5087465;28;20205;-74
2022/04/11 06:04:16;;;;;;;68.35;9.65;;;;;;;;;;5072032;28;20312;-74
2022/04/11 06:06:44;;;;;;;67.60;10.55;;;;;;;;;;5072760;28;20436;-74
2022/04/11 06:09:11;;;;;;;66.50;8.85;;;;;;;;;;5071457;28;20282;-74
2022/04/11 06:11:38;;;;;;;69.35;10.07;;;;;;;;;;5072452;28;20213;-72
2022/04/11 06:14:06;;;;;;;66.35;10.30;;;;;;;;;;5072370;28;20291;-74
2022/04/11 06:16:34;;;;;;;68.65;8.40;;;;;;;;;;5072460;28;20211;-74
2022/04/11 06:19:01;;;;;;;69.57;9.45;;;;;;;;;;5071478;28;20255;-74
2022/04/11 06:21:28;;;;;;;64.18;9.20;;;;;;;;;;5072743;28;20295;-74
2022/04/11 06:23:55;;;;;;;66.40;9.52;;;;;;;;;;5072356;28;20235;-74
2022/04/11 06:26:22;;;;;;;74.93;9.85;;;;;;;;;;5072559;28;20323;-74
2022/04/11 06:28:49;;;;;;;70.65;11.18;;;;;;;;;;5071517;28;20673;-74
2022/04/11 06:31:18;;;;;;;66.55;10.38;;;;;;;;;;5072095;28;20211;-73
2022/04/11 06:33:45;;;;;;;69.95;10.05;;;;;;;;;;5076667;28;20200;-73
2022/04/11 06:36:12;;;;;;;67.47;9.95;;;;;;;;;;5092609;28;20208;-74
2022/04/11 06:38:39;;;;;;;65.10;9.80;;;;;;;;;;5092027;28;20230;-74
2022/04/11 06:41:07;;;;;;;64.18;9.30;;;;;;;;;;5092391;28;20291;-75
2022/04/11 06:43:34;;;;;;;67.07;9.80;;;;;;;;;;5091937;28;20716;-75
2022/04/11 06:46:01;;;;;;;67.13;9.90;;;;;;;;;;5091607;28;20723;-74
2022/04/11 06:48:30;;;;;;;66.57;11.00;;;;;;;;;;5090930;28;20724;-74
2022/04/11 06:50:57;;;;;;;65.35;10.27;;;;;;;;;;5092045;28;20673;-72
2022/04/11 06:53:24;;;;;;;64.35;9.07;;;;;;;;;;5091834;28;20233;-74
2022/04/11 06:55:51;;;;;;;64.38;8.90;;;;;;;;;;5092101;28;20307;-73
2022/04/11 06:58:19;;;;;;;66.75;9.07;;;;;;;;;;5091171;28;20263;-73
2022/04/11 07:00:46;;;;;;;65.53;8.23;;;;;;;;;;5091610;28;20295;-73
2022/04/11 07:03:13;;;;;;;65.38;8.70;;;;;;;;;;5091761;28;20259;-75
2022/04/11 07:05:42;;;;;;;66.05;7.40;;;;;;;;;;5088279;28;20254;-74
2022/04/11 07:08:09;;;;;;;62.42;7.40;;;;;;;;;;5090817;28;20307;-74
2022/04/11 07:10:40;;;;;;;65.35;8.05;;;;;;;;;;5091257;28;20204;-74
2022/04/11 07:13:08;;;;;;;62.85;6.97;;;;;;;;;;5091647;28;20200;-74
2022/04/11 07:15:35;;;;;;;61.60;6.30;;;;;;;;;;5091925;28;20212;-74
2022/04/11 07:18:02;;;;;;;62.55;6.47;;;;;;;;;;5091522;28;20255;-74
2022/04/11 07:20:30;;;;;;;62.15;6.65;;;;;;;;;;5091715;28;20205;-74
2022/04/11 07:22:58;;;;;;;62.47;6.78;;;;;;;;;;5091526;28;20251;-74
2022/04/11 07:25:25;;;;;;;61.35;5.70;;;;;;;;;;5091858;28;20204;-73
2022/04/11 07:27:55;;;;;;;65.35;5.97;;;;;;;;;;5090645;28;20315;-74
2022/04/11 07:30:22;;;;;;;61.85;5.95;;;;;;;;;;5091544;28;20204;-73
2022/04/11 07:32:50;;;;;;;63.33;6.50;;;;;;;;;;5091682;28;20210;-74
2022/04/11 07:35:17;;;;;;;65.88;6.78;;;;;;;;;;5090615;28;20299;-73
2022/04/11 07:37:44;;;;;;;63.63;6.75;;;;;;;;;;5087361;28;20220;-74
2022/04/11 07:40:13;;;;;;;63.58;6.57;;;;;;;;;;5091474;28;20291;-73
2022/04/11 07:42:40;;;;;;;63.25;5.95;;;;;;;;;;5091380;28;20205;-72
2022/04/11 07:45:08;;;;;;;60.90;5.90;;;;;;;;;;5091427;28;20765;-74
2022/04/11 07:47:35;;;;;;;62.92;6.25;;;;;;;;;;5090369;28;20255;-74
2022/04/11 07:50:02;;;;;;;62.45;6.00;;;;;;;;;;5091162;28;20218;-74
2022/04/11 07:52:29;;;;;;;61.35;6.03;;;;;;;;;;5091036;28;20240;-75
2022/04/11 07:54:57;;;;;;;62.85;5.82;;;;;;;;;;5091462;28;20211;-74
2022/04/11 07:57:25;;;;;;;64.35;6.65;;;;;;;;;;5092105;28;20293;-75
2022/04/11 07:59:52;;;;;;;62.70;5.67;;;;;;;;;;5092606;28;20216;-74
2022/04/11 08:02:24;;;;;;;61.50;5.23;;;;;;;;;;5093176;28;20440;-74
2022/04/11 08:04:52;;;;;;;61.17;6.03;;;;;;;;;;5092016;28;20483;-74
2022/04/11 08:07:19;;;;;;;61.00;5.05;;;;;;;;;;5090414;28;20216;-74
2022/04/11 08:09:46;;;;;;;60.43;5.20;;;;;;;;;;5091560;28;20202;-74
2022/04/11 08:12:13;;;;;;;61.87;5.90;;;;;;;;;;5091986;28;20448;-75
2022/04/11 08:14:42;;;;;;;64.17;5.00;;;;;;;;;;5095075;28;20874;-74
2022/04/11 08:17:09;;;;;;;62.07;5.27;;;;;;;;;;5094579;28;20457;-73
2022/04/11 08:19:36;;;;;;;60.97;5.28;;;;;;;;;;5096794;28;20820;-74
2022/04/11 08:22:03;;;;;;;63.80;5.97;;;;;;;;;;5095496;28;20199;-75
2022/04/11 08:24:30;;;;;;;62.40;5.20;;;;;;;;;;5096597;28;20574;-74
2022/04/11 08:26:58;;;;;;;62.97;5.07;;;;;;;;;;5098394;28;20449;-75
2022/04/11 08:29:25;;;;;;;60.80;4.67;;;;;;;;;;5095050;28;20571;-74
2022/04/11 08:31:54;;;;;;;62.87;5.40;;;;;;;;;;5095222;28;20460;-73
2022/04/11 08:34:21;;;;;;;62.37;5.17;;;;;;;;;;5096432;28;20452;-74
2022/04/11 08:36:48;;;;;;;64.60;5.43;;;;;;;;;;5096785;28;20454;-73
2022/04/11 08:39:16;;;;;;;61.60;5.47;;;;;;;;;;5096234;28;20892;-74
2022/04/11 08:41:44;;;;;;;68.93;5.33;;;;;;;;;;5097390;28;20449;-74
2022/04/11 08:44:13;;;;;;;60.40;5.00;;;;;;;;;;5095270;28;20485;-74
2022/04/11 08:46:40;;;;;;;62.47;4.87;;;;;;;;;;5096692;28;20479;-74
2022/04/11 08:49:09;;;;;;;60.43;4.50;;;;;;;;;;5095319;28;20491;-73
2022/04/11 08:51:37;;;;;;;60.53;4.70;;;;;;;;;;5096040;28;20449;-74
2022/04/11 08:54:05;;;;;;;60.03;4.93;;;;;;;;;;5096993;28;20510;-74
2022/04/11 08:56:33;;;;;;;59.57;4.60;;;;;;;;;;5096424;28;20449;-74
2022/04/11 08:59:01;;;;;;;64.73;4.80;;;;;;;;;;5094730;28;20548;-74
2022/04/11 09:01:28;;;;;;;60.70;4.73;;;;;;;;;;5096370;28;20469;-74
2022/04/11 09:03:55;;;;;;;60.00;4.33;;;;;;;;;;5096406;28;20576;-74
2022/04/11 09:06:24;;;;;;;60.00;4.20;;;;;;;;;;5096088;28;20482;-74
2022/04/11 09:08:52;;;;;;;60.17;4.33;;;;;;;;;;5093600;28;20918;-72
2022/04/11 09:11:29;;;;;;;61.47;4.60;;;;;;;;;;5093956;28;20901;-74
2022/04/11 09:13:56;;;;;;;59.73;4.60;;;;;;;;;;5095829;28;20442;-74
2022/04/11 09:16:23;;;;;;;60.57;4.10;;;;;;;;;;5095867;28;20855;-73
2022/04/11 09:18:52;;;;;;;61.70;5.13;;;;;;;;;;5095127;28;20906;-74
2022/04/11 09:21:19;;;;;;;60.50;4.70;;;;;;;;;;5096086;28;20512;-74
2022/04/11 09:23:48;;;;;;;59.83;4.17;;;;;;;;;;5095125;28;20478;-74
2022/04/11 09:26:16;;;;;;;61.17;4.73;;;;;;;;;;5096053;28;20454;-73
2022/04/11 09:28:43;;;;;;;60.80;4.27;;;;;;;;;;5094856;28;20485;-72
2022/04/11 09:31:11;;;;;;;60.70;4.30;;;;;;;;;;5095014;28;20453;-74
2022/04/11 09:33:42;;;;;;;60.07;3.90;;;;;;;;;;5096374;28;20533;-73
2022/04/11 09:36:09;;;;;;;60.20;4.00;;;;;;;;;;5096279;28;20454;-75
2022/04/11 09:38:38;;;;;;;66.40;4.30;;;;;;;;;;5095640;28;20502;-74
2022/04/11 09:41:07;;;;;;;62.10;4.30;;;;;;;;;;5096616;28;20447;-74
2022/04/11 09:43:35;;;;;;;60.50;4.63;;;;;;;;;;5096166;28;20442;-73
2022/04/11 09:46:03;;;;;;;60.43;3.83;;;;;;;;;;5096424;28;20478;-74
2022/04/11 09:48:32;;;;;;;61.80;4.23;;;;;;;;;;5095474;28;20478;-74
2022/04/11 09:51:00;;;;;;;59.57;3.90;;;;;;;;;;5096532;28;20446;-74
2022/04/11 09:53:31;;;;;;;61.67;4.33;;;;;;;;;;5096500;28;20446;-74
2022/04/11 09:56:02;;;;;;;59.27;3.90;;;;;;;;;;5096186;28;20456;-73
2022/04/11 09:58:31;;;;;;;59.90;3.83;;;;;;;;;;5095778;28;20465;-73
2022/04/11 10:00:59;;;;;;;58.83;3.80;;;;;;;;;;5096022;28;21200;-73
2022/04/11 10:03:26;;;;;;;60.50;3.97;;;;;;;;;;5095051;28;20522;-75
2022/04/11 10:05:54;;;;;;;59.03;3.60;;;;;;;;;;5095058;28;20473;-74
2022/04/11 10:08:24;;;;;;;59.07;3.80;;;;;;;;;;5094258;28;20544;-74
2022/04/11 10:10:52;;;;;;;59.13;3.43;;;;;;;;;;5095313;28;20791;-75
2022/04/11 10:13:19;;;;;;;59.40;3.60;;;;;;;;;;5094547;28;20443;-74
2022/04/11 10:15:48;;;;;;;59.37;3.70;;;;;;;;;;5094607;28;20453;-74
2022/04/11 10:18:16;;;;;;;59.40;3.53;;;;;;;;;;5094550;28;20814;-74
2022/04/11 10:20:45;;;;;;;59.27;3.13;;;;;;;;;;5096155;28;20460;-74
2022/04/11 10:23:16;;;;;;;59.07;3.33;;;;;;;;;;5096003;28;20481;-75
2022/04/11 10:25:46;;;;;;;59.10;3.17;;;;;;;;;;5096572;28;20569;-75
2022/04/11 10:28:17;;;;;;;58.97;2.90;;;;;;;;;;5095673;28;20498;-74
2022/04/11 10:30:45;;;;;;;60.10;3.40;;;;;;;;;;5095670;28;20450;-74
2022/04/11 10:33:13;;;;;;;58.47;3.00;;;;;;;;;;5095966;28;20447;-74
2022/04/11 10:35:41;;;;;;;59.50;3.40;;;;;;;;;;5094394;28;20478;-75
2022/04/11 10:38:09;;;;;;;60.10;3.30;;;;;;;;;;5093382;28;20473;-75
2022/04/11 10:40:37;;;;;;;59.50;3.20;;;;;;;;;;5094623;28;20992;-75
2022/04/11 10:43:22;;;;;;;59.13;3.20;;;;;;;;;;5094772;28;20453;-75
2022/04/11 10:46:00;;;;;;;61.87;3.60;;;;;;;;;;5094393;28;20491;-74
2022/04/11 10:48:42;;;;;;;61.40;3.37;;;;;;;;;;5093695;28;20538;-74
2022/04/11 10:51:17;;;;;;;60.60;3.10;;;;;;;;;;5066275;28;20553;-72
2022/04/11 10:54:15;;;;;;;59.37;3.30;;;;;;;;;;5071988;28;20867;-73
2022/04/11 10:56:51;;;;;;;60.50;3.60;;;;;;;;;;5073576;28;20544;-74
2022/04/11 10:59:26;;;;;;;59.33;3.10;;;;;;;;;;5068843;28;20483;-74
2022/04/11 11:01:57;;;;;;;58.40;2.97;;;;;;;;;;5072156;28;20446;-74
2022/04/11 11:04:25;;;;;;;59.27;3.30;;;;;;;;;;5071763;28;20522;-75
2022/04/11 11:07:08;;;;;;;61.20;3.63;;;;;;;;;;5072088;28;20513;-74
2022/04/11 11:09:41;;;;;;;58.93;3.00;;;;;;;;;;5071754;28;20452;-74
2022/04/11 11:12:20;;;;;;;59.57;3.40;;;;;;;;;;5072000;28;20450;-74
2022/04/11 11:14:47;;;;;;;59.50;3.60;;;;;;;;;;5072006;28;20481;-75
2022/04/11 11:17:14;;;;;;;59.00;3.10;;;;;;;;;;5071160;28;20451;-74
2022/04/11 11:20:00;;;;;;;58.73;3.27;;;;;;;;;;5072021;28;20443;-75
2022/04/11 11:22:27;;;;;;;58.77;3.33;;;;;;;;;;5071361;28;20536;-73
2022/04/11 11:25:13;;;;;;;60.00;3.40;;;;;;;;;;5071421;28;20479;-75
2022/04/11 11:27:42;;;;;;;58.90;3.00;;;;;;;;;;5070124;28;20471;-75
2022/04/11 11:30:09;;;;;;;59.07;2.50;;;;;;;;;;5068264;28;20529;-75
2022/04/11 11:32:40;;;;;;;59.10;3.00;;;;;;;;;;5071393;28;20470;-75
2022/04/11 11:35:08;;;;;;;69.73;3.30;;;;;;;;;;5071396;28;20482;-74
2022/04/11 11:37:35;;;;;;;58.60;2.90;;;;;;;;;;5070625;28;20468;-75
2022/04/11 11:40:03;;;;;;;58.50;2.80;;;;;;;;;;5072009;28;20461;-75
2022/04/11 11:42:35;;;;;;;58.83;3.70;;;;;;;;;;5072929;28;20450;-75
2022/04/11 11:45:04;;;;;;;58.97;2.83;;;;;;;;;;5071234;28;20570;-75
2022/04/11 11:47:31;;;;;;;58.80;3.13;;;;;;;;;;5071859;28;20478;-74
2022/04/11 11:50:02;;;;;;;60.10;3.10;;;;;;;;;;5075568;28;20465;-74
2022/04/11 11:52:29;;;;;;;60.90;3.60;;;;;;;;;;5075340;28;20543;-74
2022/04/11 11:54:56;;;;;;;59.60;3.40;;;;;;;;;;5075260;28;20534;-74
2022/04/11 11:57:25;;;;;;;58.63;3.07;;;;;;;;;;5074530;28;20461;-75
2022/04/11 11:59:54;;;;;;;58.53;2.97;;;;;;;;;;5074271;28;20533;-75
2022/04/11 12:05:21;;;;;;;59.57;3.33;;;;;;;;;;5094900;28;20474;-75
2022/04/11 12:07:49;;;;;;;59.50;3.13;;;;;;;;;;5094103;28;20473;-75
2022/04/11 12:10:16;;;;;;;58.50;3.00;;;;;;;;;;5095314;28;20457;-74
2022/04/11 12:12:47;;;;;;;59.10;2.80;;;;;;;;;;5095223;28;20450;-75
2022/04/11 12:15:15;;;;;;;58.37;3.00;;;;;;;;;;5095059;28;20495;-74
2022/04/11 12:17:44;;;;;;;58.40;3.00;;;;;;;;;;5094585;28;20494;-74
2022/04/11 12:20:15;;;;;;;58.50;3.20;;;;;;;;;;5095237;28;20473;-73
2022/04/11 12:23:00;;;;;;;58.87;3.03;;;;;;;;;;5095050;28;20866;-73
2022/04/11 12:25:28;;;;;;;59.20;3.57;;;;;;;;;;5094658;28;20937;-75
2022/04/11 12:28:10;;;;;;;58.87;3.13;;;;;;;;;;5094313;28;20834;-72
2022/04/11 12:30:37;;;;;;;58.40;2.87;;;;;;;;;;5095064;28;20454;-75
2022/04/11 12:33:06;;;;;;;58.30;2.97;;;;;;;;;;5092261;28;20450;-76
2022/04/11 12:35:33;;;;;;;57.90;3.17;;;;;;;;;;5096349;28;20478;-76
2022/04/11 12:38:00;;;;;;;59.87;3.33;;;;;;;;;;5093094;28;20462;-76
2022/04/11 12:40:41;;;;;;;58.50;2.90;;;;;;;;;;5096916;28;20454;-75
2022/04/11 12:43:09;;;;;;;58.73;3.13;;;;;;;;;;5097810;28;20465;-74
2022/04/11 12:45:36;;;;;;;57.70;2.53;;;;;;;;;;5097574;28;20482;-76
2022/04/11 12:48:04;;;;;;;58.47;3.27;;;;;;;;;;5095565;28;20833;-74
2022/04/11 12:50:34;;;;;;;59.13;3.20;;;;;;;;;;5095831;28;20450;-74
2022/04/11 12:53:01;;;;;;;59.40;3.47;;;;;;;;;;5095315;28;20951;-74
2022/04/11 12:55:29;;;;;;;58.57;3.10;;;;;;;;;;5097090;28;20903;-74
2022/04/11 12:58:06;;;;;;;58.60;2.90;;;;;;;;;;5095564;28;20519;-73
2022/04/11 13:00:34;;;;;;;59.77;3.27;;;;;;;;;;5095091;28;20461;-74
2022/04/11 13:03:01;;;;;;;58.50;3.27;;;;;;;;;;5096883;28;20537;-73
2022/04/11 13:05:29;;;;;;;59.40;3.33;;;;;;;;;;5096257;28;20997;-75
2022/04/11 13:07:58;;;;;;;59.13;3.40;;;;;;;;;;5093283;28;20527;-74
2022/04/11 13:10:26;;;;;;;58.20;2.97;;;;;;;;;;5092926;28;20505;-75
2022/04/11 13:12:53;;;;;;;59.43;3.30;;;;;;;;;;5094877;28;20443;-75
2022/04/11 13:15:21;;;;;;;59.60;3.43;;;;;;;;;;5095307;28;20818;-75
2022/04/11 13:20:29;;;;;;;59.17;3.50;;;;;;;;;;5086641;28;20594;-76
2022/04/11 13:22:58;;;;;;;58.77;3.17;;;;;;;;;;5094403;28;20474;-74
2022/04/11 13:25:25;;;;;;;58.87;3.50;;;;;;;;;;5094071;28;20482;-74
2022/04/11 13:27:52;;;;;;;60.07;3.80;;;;;;;;;;5092890;28;20552;-74
2022/04/11 13:30:19;;;;;;;60.17;3.70;;;;;;;;;;5093977;28;20494;-74
2022/04/11 13:32:47;;;;;;;59.53;3.67;;;;;;;;;;5094428;28;20879;-74
2022/04/11 13:35:14;;;;;;;64.70;3.90;;;;;;;;;;5094809;28;20531;-75
2022/04/11 13:37:41;;;;;;;58.70;3.30;;;;;;;;;;5093847;28;20496;-75
2022/04/11 13:40:10;;;;;;;59.57;3.60;;;;;;;;;;5093732;28;20454;-74
2022/04/11 13:42:37;;;;;;;59.10;3.40;;;;;;;;;;5072913;28;20455;-75
2022/04/11 13:45:05;;;;;;;67.83;4.23;;;;;;;;;;5073589;28;20483;-74
2022/04/11 13:47:32;;;;;;;59.10;3.50;;;;;;;;;;5072515;28;20997;-75
2022/04/11 13:49:59;;;;;;;59.17;3.30;;;;;;;;;;5073001;28;20467;-75
2022/04/11 13:52:26;;;;;;;58.17;3.10;;;;;;;;;;5072879;28;20545;-75
2022/04/11 13:54:53;;;;;;;59.20;3.40;;;;;;;;;;5073166;28;20454;-75
2022/04/11 13:57:22;;;;;;;58.97;3.50;;;;;;;;;;5072307;28;20465;-74
2022/04/11 13:59:49;;;;;;;59.20;3.33;;;;;;;;;;5073689;28;20455;-75
2022/04/11 14:02:17;;;;;;;60.37;3.97;;;;;;;;;;5073522;28;20552;-74
2022/04/11 14:04:46;;;;;;;58.60;3.63;;;;;;;;;;5074542;28;20862;-74
2022/04/11 14:07:13;;;;;;;59.50;4.00;;;;;;;;;;5073907;28;20435;-73
2022/04/11 14:09:40;;;;;;;58.57;3.20;;;;;;;;;;5072988;28;20449;-75
2022/04/11 14:12:09;;;;;;;60.27;3.77;;;;;;;;;;5073095;28;20515;-74
2022/04/11 14:14:38;;;;;;;59.60;4.10;;;;;;;;;;5094814;28;20461;-75
2022/04/11 14:17:05;;;;;;;59.80;3.33;;;;;;;;;;5095328;28;20443;-74
2022/04/11 14:19:32;;;;;;;59.30;4.50;;;;;;;;;;5094107;28;20478;-75
2022/04/11 14:22:00;;;;;;;59.43;4.57;;;;;;;;;;5093292;28;20544;-75
2022/04/11 14:24:27;;;;;;;59.20;4.00;;;;;;;;;;5094533;28;20989;-73
2022/04/11 14:26:54;;;;;;;59.97;4.03;;;;;;;;;;5094001;28;20484;-75
2022/04/11 14:29:21;;;;;;;58.47;3.60;;;;;;;;;;5092621;28;20476;-74
2022/04/11 14:31:50;;;;;;;58.90;3.50;;;;;;;;;;5093811;28;20452;-75
2022/04/11 14:34:17;;;;;;;59.40;4.20;;;;;;;;;;5092870;28;20457;-75
2022/04/11 14:36:44;;;;;;;60.50;4.17;;;;;;;;;;5092815;28;20451;-75
2022/04/11 14:39:11;;;;;;;59.40;4.43;;;;;;;;;;5092794;28;20914;-75